Russian River, California
Current Conditions -  °F | °C
As of 6:53 PM on Monday 22 Dec 2014 (Local Time) from KSTS Reporting Station
Clear Clear  
Wind Chill: 59°   Ceiling: Unl
Heat Index: 59°   Visibility: 10mi
Dew Point: 54°   Wind: 5mph
Humidity: 83%   Direction: 30°NNE
Pressure: 30.18"   Gusts: NA
Location:  38.4654°N, 123.012°W
Report Text: KSTS 230253Z 03004KT 10SM CLR 15/12 A3018 RMK AO2 SLP214 T01500122 55000
Loading
Personal Weather Stations






























Interactive Weather Map New forecast layout! Learn more

10-Day Weather Forecast

Advertisements
Track Severe Weather on mobile